This is the latest recevied weather packets stored in our database for station/object SQ9IDT-13. If no packets are shown the sender has not sent any weather packets the latest 10 day(s).
| Time | Temp. | Humidity | Pressure | Rain* | Wind** | Luminosity | Snow |
|---|---|---|---|---|---|---|---|
| 1778090844 | 21.11° C | 38% | 972.9 hPa | - | - | - | - |
| 1778083645 | 24.44° C | 34% | 973.1 hPa | - | - | - | - |
| 1778080045 | 25.56° C | 33% | 973.3 hPa | - | - | - | - |
| 1778076444 | 24.44° C | 35% | 973.7 hPa | - | - | - | - |
| 1778072842 | 28.89° C | 31% | 974 hPa | - | - | - | - |
| 1778069241 | 28.33° C | 33% | 974.3 hPa | - | - | - | - |
| 1778065639 | 27.22° C | 34% | 974.2 hPa | - | - | - | - |
| 1778058446 | 25.56° C | 38% | 974.2 hPa | - | - | - | - |
| 1778054844 | 25° C | 41% | 974 hPa | - | - | - | - |
| 1778051243 | 23.33° C | 44% | 973.9 hPa | - | - | - | - |
| 1778047641 | 21.11° C | 43% | 973.5 hPa | - | - | - | - |
| 1778044040 | 17.22° C | 41% | 973.4 hPa | - | - | - | - |
| 1778040436 | 12.78° C | 42% | 973.5 hPa | - | - | - | - |
| 1778036843 | 13.33° C | 41% | 973.4 hPa | - | - | - | - |
| 1778033241 | 13.89° C | 39% | 973.2 hPa | - | - | - | - |
| 1778029640 | 13.89° C | 38% | 973.1 hPa | - | - | - | - |
| 1778022441 | 17.22° C | 35% | 973.6 hPa | - | - | - | - |
| 1778019249 | 17.78° C | 33% | 973.8 hPa | - | - | - | - |
| 1778018835 | 17.78° C | 33% | 973.8 hPa | - | - | - | - |
| 1778015244 | 17.78° C | 32% | 974.1 hPa | - | - | - | - |
| 1778011641 | 17.78° C | 30% | 974.1 hPa | - | - | - | - |
| 1778008039 | 18.89° C | 29% | 974.1 hPa | - | - | - | - |
| 1778004440 | 21.67° C | 26% | 973.8 hPa | - | - | - | - |
| 1778000836 | 25° C | 23% | 973.5 hPa | - | - | - | - |
| 1777997234 | 28.33° C | 21% | 973.6 hPa | - | - | - | - |
* Rain since midnight (hover to see other rain measurements)
** Current wind speed in m/s (hover to see current wind gust speed)